sensor_id;sensor_type;location;lat;lon;timestamp;P1;durP1;ratioP1;P2;durP2;ratioP2
75760;SDS011;64373;46.136;8.830;2023-06-10T00:02:03;3.97;;;3.55;;
75760;SDS011;64373;46.136;8.830;2023-06-10T00:04:29;4.47;;;3.70;;
75760;SDS011;64373;46.136;8.830;2023-06-10T00:06:55;3.33;;;3.00;;
75760;SDS011;64373;46.136;8.830;2023-06-10T00:09:20;3.70;;;3.05;;
75760;SDS011;64373;46.136;8.830;2023-06-10T00:11:46;3.60;;;3.30;;
75760;SDS011;64373;46.136;8.830;2023-06-10T00:14:12;4.03;;;3.00;;
75760;SDS011;64373;46.136;8.830;2023-06-10T00:16:38;3.50;;;3.20;;
75760;SDS011;64373;46.136;8.830;2023-06-10T00:19:04;3.88;;;3.50;;
75760;SDS011;64373;46.136;8.830;2023-06-10T00:21:30;3.72;;;3.30;;
75760;SDS011;64373;46.136;8.830;2023-06-10T00:24:11;4.53;;;3.88;;
75760;SDS011;64373;46.136;8.830;2023-06-10T00:26:40;4.22;;;3.80;;
75760;SDS011;64373;46.136;8.830;2023-06-10T00:29:06;3.83;;;2.92;;
75760;SDS011;64373;46.136;8.830;2023-06-10T00:31:33;3.22;;;2.92;;
75760;SDS011;64373;46.136;8.830;2023-06-10T00:34:00;4.38;;;3.17;;
75760;SDS011;64373;46.136;8.830;2023-06-10T00:36:26;4.00;;;3.40;;
75760;SDS011;64373;46.136;8.830;2023-06-10T00:38:52;4.57;;;4.00;;
75760;SDS011;64373;46.136;8.830;2023-06-10T00:41:17;4.88;;;3.75;;
75760;SDS011;64373;46.136;8.830;2023-06-10T00:43:43;4.00;;;3.60;;
75760;SDS011;64373;46.136;8.830;2023-06-10T00:46:09;4.20;;;3.40;;
75760;SDS011;64373;46.136;8.830;2023-06-10T00:48:37;5.75;;;4.13;;
75760;SDS011;64373;46.136;8.830;2023-06-10T00:51:03;4.38;;;3.50;;
75760;SDS011;64373;46.136;8.830;2023-06-10T00:53:30;5.07;;;3.78;;
75760;SDS011;64373;46.136;8.830;2023-06-10T00:55:56;4.43;;;3.85;;
75760;SDS011;64373;46.136;8.830;2023-06-10T00:58:22;3.85;;;3.25;;
75760;SDS011;64373;46.136;8.830;2023-06-10T01:00:48;4.97;;;4.25;;
75760;SDS011;64373;46.136;8.830;2023-06-10T01:03:15;4.97;;;3.97;;
75760;SDS011;64373;46.136;8.830;2023-06-10T01:05:42;5.20;;;4.53;;
75760;SDS011;64373;46.136;8.830;2023-06-10T01:10:55;4.47;;;3.40;;
75760;SDS011;64373;46.136;8.830;2023-06-10T01:13:23;4.35;;;3.60;;
75760;SDS011;64373;46.136;8.830;2023-06-10T01:18:19;5.57;;;4.28;;
75760;SDS011;64373;46.136;8.830;2023-06-10T01:20:44;4.13;;;3.50;;
75760;SDS011;64373;46.136;8.830;2023-06-10T01:23:11;4.05;;;3.40;;
75760;SDS011;64373;46.136;8.830;2023-06-10T01:25:38;4.70;;;3.45;;
75760;SDS011;64373;46.136;8.830;2023-06-10T01:30:55;3.58;;;3.25;;
75760;SDS011;64373;46.136;8.830;2023-06-10T01:33:29;4.07;;;3.67;;
75760;SDS011;64373;46.136;8.830;2023-06-10T01:35:57;3.75;;;3.45;;
75760;SDS011;64373;46.136;8.830;2023-06-10T01:38:25;3.72;;;3.33;;
75760;SDS011;64373;46.136;8.830;2023-06-10T01:40:52;3.35;;;3.03;;
75760;SDS011;64373;46.136;8.830;2023-06-10T01:43:19;3.72;;;3.08;;
75760;SDS011;64373;46.136;8.830;2023-06-10T01:45:45;4.55;;;3.08;;
75760;SDS011;64373;46.136;8.830;2023-06-10T01:48:11;4.38;;;3.78;;
75760;SDS011;64373;46.136;8.830;2023-06-10T01:50:37;4.93;;;3.28;;
75760;SDS011;64373;46.136;8.830;2023-06-10T01:53:03;4.30;;;3.60;;
75760;SDS011;64373;46.136;8.830;2023-06-10T01:55:28;5.35;;;4.25;;
75760;SDS011;64373;46.136;8.830;2023-06-10T01:57:54;4.70;;;4.20;;
75760;SDS011;64373;46.136;8.830;2023-06-10T02:00:20;5.80;;;4.28;;
75760;SDS011;64373;46.136;8.830;2023-06-10T02:02:45;5.53;;;4.65;;
75760;SDS011;64373;46.136;8.830;2023-06-10T02:05:11;5.25;;;4.65;;
75760;SDS011;64373;46.136;8.830;2023-06-10T02:07:36;4.40;;;4.00;;
75760;SDS011;64373;46.136;8.830;2023-06-10T02:10:03;4.30;;;3.90;;
75760;SDS011;64373;46.136;8.830;2023-06-10T02:12:29;5.68;;;4.57;;
75760;SDS011;64373;46.136;8.830;2023-06-10T02:14:55;4.20;;;3.80;;
75760;SDS011;64373;46.136;8.830;2023-06-10T02:17:20;5.20;;;4.70;;
75760;SDS011;64373;46.136;8.830;2023-06-10T02:19:46;4.78;;;4.00;;
75760;SDS011;64373;46.136;8.830;2023-06-10T02:22:19;5.88;;;4.78;;
75760;SDS011;64373;46.136;8.830;2023-06-10T02:24:45;3.90;;;3.40;;
75760;SDS011;64373;46.136;8.830;2023-06-10T02:27:11;4.07;;;3.50;;
75760;SDS011;64373;46.136;8.830;2023-06-10T02:29:36;4.10;;;3.70;;
75760;SDS011;64373;46.136;8.830;2023-06-10T02:32:02;4.80;;;4.00;;
75760;SDS011;64373;46.136;8.830;2023-06-10T02:34:28;4.88;;;4.00;;
75760;SDS011;64373;46.136;8.830;2023-06-10T02:36:53;4.85;;;4.15;;
75760;SDS011;64373;46.136;8.830;2023-06-10T02:39:19;5.22;;;4.72;;
75760;SDS011;64373;46.136;8.830;2023-06-10T02:41:46;4.85;;;4.30;;
75760;SDS011;64373;46.136;8.830;2023-06-10T02:44:11;6.38;;;5.03;;
75760;SDS011;64373;46.136;8.830;2023-06-10T02:46:37;5.28;;;4.72;;
75760;SDS011;64373;46.136;8.830;2023-06-10T02:49:02;5.43;;;4.93;;
75760;SDS011;64373;46.136;8.830;2023-06-10T02:51:28;6.05;;;4.05;;
75760;SDS011;64373;46.136;8.830;2023-06-10T02:53:54;5.25;;;4.60;;
75760;SDS011;64373;46.136;8.830;2023-06-10T02:56:19;5.32;;;4.53;;
75760;SDS011;64373;46.136;8.830;2023-06-10T02:58:45;5.60;;;3.92;;
75760;SDS011;64373;46.136;8.830;2023-06-10T03:01:12;4.85;;;4.35;;
75760;SDS011;64373;46.136;8.830;2023-06-10T03:03:38;4.95;;;4.03;;
75760;SDS011;64373;46.136;8.830;2023-06-10T03:06:07;3.95;;;3.55;;
75760;SDS011;64373;46.136;8.830;2023-06-10T03:08:35;3.70;;;3.33;;
75760;SDS011;64373;46.136;8.830;2023-06-10T03:11:01;4.47;;;3.13;;
75760;SDS011;64373;46.136;8.830;2023-06-10T03:13:26;5.43;;;4.57;;
75760;SDS011;64373;46.136;8.830;2023-06-10T03:15:52;4.18;;;3.45;;
75760;SDS011;64373;46.136;8.830;2023-06-10T03:18:18;3.53;;;3.22;;
75760;SDS011;64373;46.136;8.830;2023-06-10T03:20:43;4.00;;;3.42;;
75760;SDS011;64373;46.136;8.830;2023-06-10T03:23:09;4.47;;;3.67;;
75760;SDS011;64373;46.136;8.830;2023-06-10T03:25:35;4.50;;;3.63;;
75760;SDS011;64373;46.136;8.830;2023-06-10T03:28:01;4.63;;;4.07;;
75760;SDS011;64373;46.136;8.830;2023-06-10T03:30:29;5.22;;;4.53;;
75760;SDS011;64373;46.136;8.830;2023-06-10T03:32:54;4.97;;;4.32;;
75760;SDS011;64373;46.136;8.830;2023-06-10T03:35:20;4.80;;;4.30;;
75760;SDS011;64373;46.136;8.830;2023-06-10T03:37:45;5.38;;;4.30;;
75760;SDS011;64373;46.136;8.830;2023-06-10T03:40:11;6.55;;;4.78;;
75760;SDS011;64373;46.136;8.830;2023-06-10T03:42:37;5.43;;;4.93;;
75760;SDS011;64373;46.136;8.830;2023-06-10T03:45:03;5.13;;;4.63;;
75760;SDS011;64373;46.136;8.830;2023-06-10T03:47:35;4.82;;;4.30;;
75760;SDS011;64373;46.136;8.830;2023-06-10T03:50:02;4.50;;;4.10;;
75760;SDS011;64373;46.136;8.830;2023-06-10T03:52:29;4.25;;;3.65;;
75760;SDS011;64373;46.136;8.830;2023-06-10T03:54:55;4.68;;;3.90;;
75760;SDS011;64373;46.136;8.830;2023-06-10T03:57:20;4.80;;;4.20;;
75760;SDS011;64373;46.136;8.830;2023-06-10T03:59:46;4.60;;;3.58;;
75760;SDS011;64373;46.136;8.830;2023-06-10T04:02:11;4.32;;;3.92;;
75760;SDS011;64373;46.136;8.830;2023-06-10T04:04:37;4.97;;;4.30;;
75760;SDS011;64373;46.136;8.830;2023-06-10T04:07:03;5.05;;;4.53;;
75760;SDS011;64373;46.136;8.830;2023-06-10T04:09:30;6.45;;;4.50;;
75760;SDS011;64373;46.136;8.830;2023-06-10T04:11:55;6.00;;;4.30;;
75760;SDS011;64373;46.136;8.830;2023-06-10T04:14:21;5.05;;;4.55;;
75760;SDS011;64373;46.136;8.830;2023-06-10T04:16:46;5.30;;;4.80;;
75760;SDS011;64373;46.136;8.830;2023-06-10T04:19:12;4.47;;;3.75;;
75760;SDS011;64373;46.136;8.830;2023-06-10T04:21:37;4.10;;;3.70;;
75760;SDS011;64373;46.136;8.830;2023-06-10T04:24:03;4.32;;;3.92;;
75760;SDS011;64373;46.136;8.830;2023-06-10T04:26:29;4.32;;;3.90;;
75760;SDS011;64373;46.136;8.830;2023-06-10T04:28:54;4.97;;;4.20;;
75760;SDS011;64373;46.136;8.830;2023-06-10T04:31:20;3.38;;;2.83;;
75760;SDS011;64373;46.136;8.830;2023-06-10T04:33:45;4.50;;;4.10;;
75760;SDS011;64373;46.136;8.830;2023-06-10T04:36:11;5.65;;;4.22;;
75760;SDS011;64373;46.136;8.830;2023-06-10T04:38:37;4.85;;;3.92;;
75760;SDS011;64373;46.136;8.830;2023-06-10T04:41:03;3.47;;;3.17;;
75760;SDS011;64373;46.136;8.830;2023-06-10T04:43:29;3.40;;;3.10;;
75760;SDS011;64373;46.136;8.830;2023-06-10T04:45:55;3.30;;;3.00;;
75760;SDS011;64373;46.136;8.830;2023-06-10T04:48:21;3.10;;;2.35;;
75760;SDS011;64373;46.136;8.830;2023-06-10T04:50:48;3.10;;;2.80;;
75760;SDS011;64373;46.136;8.830;2023-06-10T04:53:14;3.05;;;2.75;;
75760;SDS011;64373;46.136;8.830;2023-06-10T04:55:40;3.00;;;2.70;;
75760;SDS011;64373;46.136;8.830;2023-06-10T04:58:05;3.17;;;2.70;;
75760;SDS011;64373;46.136;8.830;2023-06-10T05:00:31;3.08;;;2.72;;
75760;SDS011;64373;46.136;8.830;2023-06-10T05:02:56;2.70;;;2.50;;
75760;SDS011;64373;46.136;8.830;2023-06-10T05:05:22;3.83;;;3.42;;
75760;SDS011;64373;46.136;8.830;2023-06-10T05:07:47;4.00;;;3.60;;
75760;SDS011;64373;46.136;8.830;2023-06-10T05:10:13;4.25;;;3.58;;
75760;SDS011;64373;46.136;8.830;2023-06-10T05:12:38;4.40;;;3.63;;
75760;SDS011;64373;46.136;8.830;2023-06-10T05:15:06;3.97;;;3.58;;
75760;SDS011;64373;46.136;8.830;2023-06-10T05:17:32;3.95;;;3.55;;
75760;SDS011;64373;46.136;8.830;2023-06-10T05:19:57;3.63;;;3.30;;
75760;SDS011;64373;46.136;8.830;2023-06-10T05:22:23;3.83;;;3.30;;
75760;SDS011;64373;46.136;8.830;2023-06-10T05:24:50;4.47;;;4.07;;
75760;SDS011;64373;46.136;8.830;2023-06-10T05:27:19;4.60;;;4.20;;
75760;SDS011;64373;46.136;8.830;2023-06-10T05:29:44;5.53;;;4.60;;
75760;SDS011;64373;46.136;8.830;2023-06-10T05:32:12;4.00;;;3.60;;
75760;SDS011;64373;46.136;8.830;2023-06-10T05:34:38;4.40;;;3.95;;
75760;SDS011;64373;46.136;8.830;2023-06-10T05:37:04;5.07;;;4.00;;
75760;SDS011;64373;46.136;8.830;2023-06-10T05:39:30;3.42;;;3.13;;
75760;SDS011;64373;46.136;8.830;2023-06-10T05:41:55;4.10;;;3.70;;
75760;SDS011;64373;46.136;8.830;2023-06-10T05:44:23;6.22;;;5.38;;
75760;SDS011;64373;46.136;8.830;2023-06-10T05:46:48;7.70;;;5.10;;
75760;SDS011;64373;46.136;8.830;2023-06-10T05:49:14;4.35;;;3.88;;
75760;SDS011;64373;46.136;8.830;2023-06-10T05:51:39;4.30;;;3.60;;
75760;SDS011;64373;46.136;8.830;2023-06-10T05:54:05;3.60;;;3.30;;
75760;SDS011;64373;46.136;8.830;2023-06-10T05:56:30;3.58;;;3.28;;
75760;SDS011;64373;46.136;8.830;2023-06-10T05:58:56;4.10;;;3.65;;
75760;SDS011;64373;46.136;8.830;2023-06-10T06:01:21;3.75;;;3.40;;
75760;SDS011;64373;46.136;8.830;2023-06-10T06:03:47;3.55;;;3.20;;
75760;SDS011;64373;46.136;8.830;2023-06-10T06:06:12;3.78;;;3.40;;
75760;SDS011;64373;46.136;8.830;2023-06-10T06:08:39;7.18;;;6.20;;
75760;SDS011;64373;46.136;8.830;2023-06-10T06:11:05;7.13;;;5.43;;
75760;SDS011;64373;46.136;8.830;2023-06-10T06:13:31;6.65;;;5.72;;
75760;SDS011;64373;46.136;8.830;2023-06-10T06:15:56;6.45;;;5.63;;
75760;SDS011;64373;46.136;8.830;2023-06-10T06:18:22;5.78;;;5.07;;
75760;SDS011;64373;46.136;8.830;2023-06-10T06:20:48;7.88;;;6.07;;
75760;SDS011;64373;46.136;8.830;2023-06-10T06:23:15;6.15;;;4.88;;
75760;SDS011;64373;46.136;8.830;2023-06-10T06:25:40;7.30;;;5.40;;
75760;SDS011;64373;46.136;8.830;2023-06-10T06:28:06;7.25;;;5.00;;
75760;SDS011;64373;46.136;8.830;2023-06-10T06:30:32;4.97;;;4.03;;
75760;SDS011;64373;46.136;8.830;2023-06-10T06:32:58;4.53;;;4.07;;
75760;SDS011;64373;46.136;8.830;2023-06-10T06:35:24;4.93;;;3.92;;
75760;SDS011;64373;46.136;8.830;2023-06-10T06:37:49;4.03;;;3.28;;
75760;SDS011;64373;46.136;8.830;2023-06-10T06:40:15;4.10;;;3.70;;
75760;SDS011;64373;46.136;8.830;2023-06-10T06:42:44;3.55;;;3.25;;
75760;SDS011;64373;46.136;8.830;2023-06-10T06:45:10;3.67;;;3.28;;
75760;SDS011;64373;46.136;8.830;2023-06-10T06:47:39;4.28;;;3.60;;
75760;SDS011;64373;46.136;8.830;2023-06-10T06:50:04;3.95;;;3.55;;
75760;SDS011;64373;46.136;8.830;2023-06-10T06:52:31;3.70;;;3.20;;
75760;SDS011;64373;46.136;8.830;2023-06-10T06:54:57;3.65;;;3.20;;
75760;SDS011;64373;46.136;8.830;2023-06-10T06:57:22;5.00;;;4.03;;
75760;SDS011;64373;46.136;8.830;2023-06-10T06:59:48;6.28;;;5.13;;
75760;SDS011;64373;46.136;8.830;2023-06-10T07:02:14;5.32;;;4.65;;
75760;SDS011;64373;46.136;8.830;2023-06-10T07:04:39;5.60;;;5.00;;
75760;SDS011;64373;46.136;8.830;2023-06-10T07:07:07;6.68;;;5.80;;
75760;SDS011;64373;46.136;8.830;2023-06-10T07:09:34;7.38;;;6.55;;
75760;SDS011;64373;46.136;8.830;2023-06-10T07:11:59;7.93;;;5.70;;
75760;SDS011;64373;46.136;8.830;2023-06-10T07:14:25;7.15;;;6.10;;
75760;SDS011;64373;46.136;8.830;2023-06-10T07:16:50;6.70;;;5.00;;
75760;SDS011;64373;46.136;8.830;2023-06-10T07:19:23;5.75;;;5.03;;
75760;SDS011;64373;46.136;8.830;2023-06-10T07:21:49;6.55;;;5.85;;
75760;SDS011;64373;46.136;8.830;2023-06-10T07:24:16;6.75;;;5.00;;
75760;SDS011;64373;46.136;8.830;2023-06-10T07:26:50;5.25;;;4.57;;
75760;SDS011;64373;46.136;8.830;2023-06-10T07:29:30;9.65;;;6.47;;
75760;SDS011;64373;46.136;8.830;2023-06-10T07:31:56;6.30;;;5.32;;
75760;SDS011;64373;46.136;8.830;2023-06-10T07:34:22;7.60;;;6.72;;
75760;SDS011;64373;46.136;8.830;2023-06-10T07:36:47;9.30;;;8.30;;
75760;SDS011;64373;46.136;8.830;2023-06-10T07:39:13;9.60;;;7.40;;
75760;SDS011;64373;46.136;8.830;2023-06-10T07:41:38;8.75;;;6.85;;
75760;SDS011;64373;46.136;8.830;2023-06-10T07:44:04;7.57;;;6.60;;
75760;SDS011;64373;46.136;8.830;2023-06-10T07:46:29;9.00;;;7.25;;
75760;SDS011;64373;46.136;8.830;2023-06-10T07:48:55;6.47;;;5.20;;
75760;SDS011;64373;46.136;8.830;2023-06-10T07:51:20;6.25;;;5.65;;
75760;SDS011;64373;46.136;8.830;2023-06-10T07:53:46;8.25;;;7.05;;
75760;SDS011;64373;46.136;8.830;2023-06-10T07:56:12;7.80;;;7.00;;
75760;SDS011;64373;46.136;8.830;2023-06-10T07:58:38;7.43;;;6.57;;
75760;SDS011;64373;46.136;8.830;2023-06-10T08:01:04;8.15;;;7.35;;
75760;SDS011;64373;46.136;8.830;2023-06-10T08:03:29;9.90;;;8.05;;
75760;SDS011;64373;46.136;8.830;2023-06-10T08:05:55;9.45;;;7.97;;
75760;SDS011;64373;46.136;8.830;2023-06-10T08:08:20;6.85;;;6.15;;
75760;SDS011;64373;46.136;8.830;2023-06-10T08:10:46;8.57;;;7.38;;
75760;SDS011;64373;46.136;8.830;2023-06-10T08:13:12;6.97;;;6.28;;
75760;SDS011;64373;46.136;8.830;2023-06-10T08:15:37;8.68;;;6.88;;
75760;SDS011;64373;46.136;8.830;2023-06-10T08:18:03;8.80;;;6.00;;
75760;SDS011;64373;46.136;8.830;2023-06-10T08:20:29;7.28;;;6.50;;
75760;SDS011;64373;46.136;8.830;2023-06-10T08:22:54;10.23;;;6.75;;
75760;SDS011;64373;46.136;8.830;2023-06-10T08:25:20;7.13;;;6.43;;
75760;SDS011;64373;46.136;8.830;2023-06-10T08:27:47;6.53;;;5.78;;
75760;SDS011;64373;46.136;8.830;2023-06-10T08:30:13;7.72;;;6.93;;
75760;SDS011;64373;46.136;8.830;2023-06-10T08:32:39;7.05;;;6.35;;
75760;SDS011;64373;46.136;8.830;2023-06-10T08:35:05;7.43;;;6.60;;
75760;SDS011;64373;46.136;8.830;2023-06-10T08:37:30;6.80;;;5.45;;
75760;SDS011;64373;46.136;8.830;2023-06-10T08:39:56;7.15;;;5.57;;
75760;SDS011;64373;46.136;8.830;2023-06-10T08:42:28;8.95;;;6.90;;
75760;SDS011;64373;46.136;8.830;2023-06-10T08:44:58;9.05;;;6.55;;
75760;SDS011;64373;46.136;8.830;2023-06-10T08:47:26;8.10;;;7.03;;
75760;SDS011;64373;46.136;8.830;2023-06-10T08:52:23;9.80;;;6.90;;
75760;SDS011;64373;46.136;8.830;2023-06-10T08:55:32;7.90;;;7.10;;
75760;SDS011;64373;46.136;8.830;2023-06-10T08:57:45;6.78;;;6.05;;
75760;SDS011;64373;46.136;8.830;2023-06-10T09:00:13;5.53;;;4.80;;
75760;SDS011;64373;46.136;8.830;2023-06-10T09:02:39;5.20;;;4.68;;
75760;SDS011;64373;46.136;8.830;2023-06-10T09:05:05;6.93;;;5.60;;
75760;SDS011;64373;46.136;8.830;2023-06-10T09:07:31;6.78;;;5.93;;
75760;SDS011;64373;46.136;8.830;2023-06-10T09:09:56;6.00;;;5.40;;
75760;SDS011;64373;46.136;8.830;2023-06-10T09:12:23;5.10;;;4.40;;
75760;SDS011;64373;46.136;8.830;2023-06-10T09:14:49;7.18;;;5.80;;
75760;SDS011;64373;46.136;8.830;2023-06-10T09:17:16;5.70;;;5.10;;
75760;SDS011;64373;46.136;8.830;2023-06-10T09:19:42;6.30;;;5.70;;
75760;SDS011;64373;46.136;8.830;2023-06-10T09:22:09;6.90;;;6.20;;
75760;SDS011;64373;46.136;8.830;2023-06-10T09:24:35;7.72;;;5.43;;
75760;SDS011;64373;46.136;8.830;2023-06-10T09:27:04;6.68;;;6.00;;
75760;SDS011;64373;46.136;8.830;2023-06-10T09:29:53;6.53;;;5.82;;
75760;SDS011;64373;46.136;8.830;2023-06-10T09:32:22;6.97;;;6.28;;
75760;SDS011;64373;46.136;8.830;2023-06-10T09:34:49;7.75;;;6.93;;
75760;SDS011;64373;46.136;8.830;2023-06-10T09:37:22;8.10;;;7.30;;
75760;SDS011;64373;46.136;8.830;2023-06-10T09:40:02;7.85;;;7.00;;
75760;SDS011;64373;46.136;8.830;2023-06-10T09:42:32;6.53;;;5.90;;
75760;SDS011;64373;46.136;8.830;2023-06-10T09:44:59;6.55;;;5.50;;
75760;SDS011;64373;46.136;8.830;2023-06-10T09:47:25;7.78;;;6.65;;
75760;SDS011;64373;46.136;8.830;2023-06-10T09:49:50;7.55;;;6.60;;
75760;SDS011;64373;46.136;8.830;2023-06-10T09:52:22;6.32;;;5.28;;
75760;SDS011;64373;46.136;8.830;2023-06-10T09:54:49;8.80;;;6.45;;
75760;SDS011;64373;46.136;8.830;2023-06-10T09:57:18;7.97;;;6.72;;
75760;SDS011;64373;46.136;8.830;2023-06-10T09:59:45;8.65;;;6.30;;
75760;SDS011;64373;46.136;8.830;2023-06-10T10:02:17;7.80;;;7.00;;
75760;SDS011;64373;46.136;8.830;2023-06-10T10:04:43;8.10;;;6.93;;
75760;SDS011;64373;46.136;8.830;2023-06-10T10:07:10;6.45;;;5.82;;
75760;SDS011;64373;46.136;8.830;2023-06-10T10:09:39;6.28;;;5.68;;
75760;SDS011;64373;46.136;8.830;2023-06-10T10:12:09;7.15;;;6.10;;
75760;SDS011;64373;46.136;8.830;2023-06-10T10:14:38;7.68;;;5.80;;
75760;SDS011;64373;46.136;8.830;2023-06-10T10:17:06;6.25;;;5.65;;
75760;SDS011;64373;46.136;8.830;2023-06-10T10:19:33;7.25;;;6.25;;
75760;SDS011;64373;46.136;8.830;2023-06-10T10:24:46;7.47;;;6.55;;
75760;SDS011;64373;46.136;8.830;2023-06-10T10:27:20;6.20;;;5.60;;
75760;SDS011;64373;46.136;8.830;2023-06-10T10:29:52;7.63;;;6.82;;
75760;SDS011;64373;46.136;8.830;2023-06-10T10:32:20;7.03;;;6.32;;
75760;SDS011;64373;46.136;8.830;2023-06-10T10:34:58;7.20;;;6.50;;
75760;SDS011;64373;46.136;8.830;2023-06-10T10:37:43;6.85;;;6.00;;
75760;SDS011;64373;46.136;8.830;2023-06-10T10:40:09;6.70;;;6.00;;
75760;SDS011;64373;46.136;8.830;2023-06-10T10:42:35;6.63;;;5.97;;
75760;SDS011;64373;46.136;8.830;2023-06-10T10:45:01;7.43;;;6.35;;
75760;SDS011;64373;46.136;8.830;2023-06-10T10:47:28;6.40;;;5.63;;
75760;SDS011;64373;46.136;8.830;2023-06-10T10:49:57;6.40;;;5.80;;
75760;SDS011;64373;46.136;8.830;2023-06-10T10:52:24;6.70;;;6.00;;
75760;SDS011;64373;46.136;8.830;2023-06-10T10:54:52;7.28;;;6.57;;
75760;SDS011;64373;46.136;8.830;2023-06-10T10:57:19;7.70;;;5.60;;
75760;SDS011;64373;46.136;8.830;2023-06-10T11:02:17;6.65;;;5.80;;
75760;SDS011;64373;46.136;8.830;2023-06-10T11:05:02;7.40;;;6.50;;
75760;SDS011;64373;46.136;8.830;2023-06-10T11:07:30;7.60;;;6.88;;
75760;SDS011;64373;46.136;8.830;2023-06-10T11:10:00;9.50;;;7.55;;
75760;SDS011;64373;46.136;8.830;2023-06-10T11:12:42;7.85;;;6.97;;
75760;SDS011;64373;46.136;8.830;2023-06-10T11:15:18;7.68;;;6.82;;
75760;SDS011;64373;46.136;8.830;2023-06-10T11:18:06;7.88;;;6.22;;
75760;SDS011;64373;46.136;8.830;2023-06-10T11:20:44;7.30;;;6.50;;
75760;SDS011;64373;46.136;8.830;2023-06-10T11:23:25;6.63;;;5.90;;
75760;SDS011;64373;46.136;8.830;2023-06-10T11:28:41;7.80;;;6.30;;
75760;SDS011;64373;46.136;8.830;2023-06-10T11:31:09;6.85;;;6.15;;
75760;SDS011;64373;46.136;8.830;2023-06-10T11:34:03;7.65;;;6.85;;
75760;SDS011;64373;46.136;8.830;2023-06-10T11:36:30;6.93;;;5.80;;
75760;SDS011;64373;46.136;8.830;2023-06-10T11:38:57;7.70;;;6.15;;
75760;SDS011;64373;46.136;8.830;2023-06-10T11:41:27;6.70;;;6.00;;
75760;SDS011;64373;46.136;8.830;2023-06-10T11:43:58;8.52;;;5.80;;
75760;SDS011;64373;46.136;8.830;2023-06-10T11:46:29;6.68;;;5.90;;
75760;SDS011;64373;46.136;8.830;2023-06-10T11:48:56;7.57;;;6.10;;
75760;SDS011;64373;46.136;8.830;2023-06-10T11:51:26;6.57;;;5.90;;
75760;SDS011;64373;46.136;8.830;2023-06-10T11:53:53;6.22;;;5.63;;
75760;SDS011;64373;46.136;8.830;2023-06-10T11:56:20;7.15;;;6.47;;
75760;SDS011;64373;46.136;8.830;2023-06-10T11:58:51;7.05;;;6.10;;
75760;SDS011;64373;46.136;8.830;2023-06-10T12:01:30;8.10;;;7.10;;
75760;SDS011;64373;46.136;8.830;2023-06-10T12:04:00;6.25;;;5.65;;
75760;SDS011;64373;46.136;8.830;2023-06-10T12:06:27;7.35;;;5.80;;
75760;SDS011;64373;46.136;8.830;2023-06-10T12:09:18;7.05;;;6.43;;
75760;SDS011;64373;46.136;8.830;2023-06-10T12:11:52;5.85;;;5.20;;
75760;SDS011;64373;46.136;8.830;2023-06-10T12:17:17;6.28;;;5.63;;
75760;SDS011;64373;46.136;8.830;2023-06-10T12:19:43;7.75;;;6.03;;
75760;SDS011;64373;46.136;8.830;2023-06-10T12:22:08;7.78;;;6.95;;
75760;SDS011;64373;46.136;8.830;2023-06-10T12:24:42;7.05;;;6.35;;
75760;SDS011;64373;46.136;8.830;2023-06-10T12:27:11;6.93;;;5.97;;
75760;SDS011;64373;46.136;8.830;2023-06-10T12:29:38;6.38;;;5.78;;
75760;SDS011;64373;46.136;8.830;2023-06-10T12:32:03;6.15;;;5.55;;
75760;SDS011;64373;46.136;8.830;2023-06-10T12:34:35;6.40;;;5.80;;
75760;SDS011;64373;46.136;8.830;2023-06-10T12:37:03;6.13;;;5.45;;
75760;SDS011;64373;46.136;8.830;2023-06-10T12:39:30;6.20;;;5.47;;
75760;SDS011;64373;46.136;8.830;2023-06-10T12:41:57;6.57;;;5.70;;
75760;SDS011;64373;46.136;8.830;2023-06-10T12:44:32;6.85;;;6.00;;
75760;SDS011;64373;46.136;8.830;2023-06-10T12:46:59;6.35;;;5.75;;
75760;SDS011;64373;46.136;8.830;2023-06-10T12:49:26;7.03;;;5.55;;
75760;SDS011;64373;46.136;8.830;2023-06-10T12:51:51;6.30;;;5.70;;
75760;SDS011;64373;46.136;8.830;2023-06-10T12:54:17;6.90;;;5.80;;
75760;SDS011;64373;46.136;8.830;2023-06-10T12:56:43;8.02;;;5.35;;
75760;SDS011;64373;46.136;8.830;2023-06-10T12:59:08;6.03;;;5.43;;
75760;SDS011;64373;46.136;8.830;2023-06-10T13:01:34;8.13;;;6.10;;
75760;SDS011;64373;46.136;8.830;2023-06-10T13:03:59;7.30;;;5.38;;
75760;SDS011;64373;46.136;8.830;2023-06-10T13:06:28;6.13;;;5.53;;
75760;SDS011;64373;46.136;8.830;2023-06-10T13:08:57;6.82;;;6.13;;
75760;SDS011;64373;46.136;8.830;2023-06-10T13:11:25;5.65;;;5.03;;
75760;SDS011;64373;46.136;8.830;2023-06-10T13:13:57;6.97;;;5.25;;
75760;SDS011;64373;46.136;8.830;2023-06-10T13:16:26;6.30;;;5.57;;
75760;SDS011;64373;46.136;8.830;2023-06-10T13:18:53;6.88;;;6.28;;
75760;SDS011;64373;46.136;8.830;2023-06-10T13:21:19;7.88;;;5.95;;
75760;SDS011;64373;46.136;8.830;2023-06-10T13:23:45;7.22;;;6.53;;
75760;SDS011;64373;46.136;8.830;2023-06-10T13:26:13;7.07;;;6.38;;
75760;SDS011;64373;46.136;8.830;2023-06-10T13:28:39;6.60;;;5.75;;
75760;SDS011;64373;46.136;8.830;2023-06-10T13:31:05;7.07;;;6.38;;
75760;SDS011;64373;46.136;8.830;2023-06-10T13:33:31;5.43;;;4.93;;
75760;SDS011;64373;46.136;8.830;2023-06-10T13:35:58;5.88;;;4.90;;
75760;SDS011;64373;46.136;8.830;2023-06-10T13:38:23;5.60;;;5.10;;
75760;SDS011;64373;46.136;8.830;2023-06-10T13:40:49;6.15;;;5.55;;
75760;SDS011;64373;46.136;8.830;2023-06-10T13:43:16;7.20;;;6.50;;
75760;SDS011;64373;46.136;8.830;2023-06-10T13:45:42;5.80;;;5.20;;
75760;SDS011;64373;46.136;8.830;2023-06-10T13:48:07;6.20;;;5.43;;
75760;SDS011;64373;46.136;8.830;2023-06-10T13:50:33;5.30;;;4.80;;
75760;SDS011;64373;46.136;8.830;2023-06-10T13:52:59;6.20;;;5.18;;
75760;SDS011;64373;46.136;8.830;2023-06-10T13:55:24;6.10;;;5.60;;
75760;SDS011;64373;46.136;8.830;2023-06-10T13:57:50;6.10;;;5.50;;
75760;SDS011;64373;46.136;8.830;2023-06-10T14:00:16;5.10;;;4.60;;
75760;SDS011;64373;46.136;8.830;2023-06-10T14:02:42;5.30;;;4.80;;
75760;SDS011;64373;46.136;8.830;2023-06-10T14:05:08;6.00;;;5.40;;
75760;SDS011;64373;46.136;8.830;2023-06-10T14:07:34;6.43;;;5.82;;
75760;SDS011;64373;46.136;8.830;2023-06-10T14:10:00;7.20;;;5.75;;
75760;SDS011;64373;46.136;8.830;2023-06-10T14:12:25;6.00;;;5.40;;
75760;SDS011;64373;46.136;8.830;2023-06-10T14:14:51;6.32;;;5.57;;
75760;SDS011;64373;46.136;8.830;2023-06-10T14:17:16;5.15;;;4.65;;
75760;SDS011;64373;46.136;8.830;2023-06-10T14:19:42;5.53;;;4.80;;
75760;SDS011;64373;46.136;8.830;2023-06-10T14:22:08;5.63;;;5.13;;
75760;SDS011;64373;46.136;8.830;2023-06-10T14:24:33;5.43;;;4.93;;
75760;SDS011;64373;46.136;8.830;2023-06-10T14:27:01;6.90;;;5.68;;
75760;SDS011;64373;46.136;8.830;2023-06-10T14:29:29;6.55;;;5.72;;
75760;SDS011;64373;46.136;8.830;2023-06-10T14:31:56;6.15;;;5.55;;
75760;SDS011;64373;46.136;8.830;2023-06-10T14:34:22;5.68;;;5.18;;
75760;SDS011;64373;46.136;8.830;2023-06-10T14:36:53;5.75;;;5.25;;
75760;SDS011;64373;46.136;8.830;2023-06-10T14:39:19;7.03;;;6.15;;
75760;SDS011;64373;46.136;8.830;2023-06-10T14:41:45;5.80;;;5.30;;
75760;SDS011;64373;46.136;8.830;2023-06-10T14:44:10;6.57;;;5.97;;
75760;SDS011;64373;46.136;8.830;2023-06-10T14:46:36;5.90;;;5.40;;
75760;SDS011;64373;46.136;8.830;2023-06-10T14:49:02;5.47;;;4.97;;
75760;SDS011;64373;46.136;8.830;2023-06-10T14:51:28;5.53;;;5.03;;
75760;SDS011;64373;46.136;8.830;2023-06-10T14:53:53;6.10;;;5.50;;
75760;SDS011;64373;46.136;8.830;2023-06-10T14:56:19;7.28;;;5.40;;
75760;SDS011;64373;46.136;8.830;2023-06-10T14:58:44;6.05;;;5.47;;
75760;SDS011;64373;46.136;8.830;2023-06-10T15:01:10;6.93;;;6.22;;
75760;SDS011;64373;46.136;8.830;2023-06-10T15:03:35;6.05;;;5.45;;
75760;SDS011;64373;46.136;8.830;2023-06-10T15:06:05;5.82;;;5.32;;
75760;SDS011;64373;46.136;8.830;2023-06-10T15:08:32;6.15;;;5.45;;
75760;SDS011;64373;46.136;8.830;2023-06-10T15:10:58;6.38;;;5.78;;